This is the latest recevied weather packets stored in our database for station/object OK1HOL-13. If no packets are shown the sender has not sent any weather packets the latest 10 day(s).
| Time | Temp. | Humidity | Pressure | Rain* | Wind** | Luminosity | Snow |
|---|---|---|---|---|---|---|---|
| 1777532483 | 10° C | 31% | 1032.9 hPa | - | - | 247 W/m² | - |
| 1777531883 | 9.44° C | 31% | 1032.9 hPa | - | - | 198 W/m² | - |
| 1777531283 | 10.56° C | 29% | 1032.8 hPa | - | - | 168 W/m² | - |
| 1777530683 | 9.44° C | 30% | 1032.8 hPa | - | - | 151 W/m² | - |
| 1777530083 | 7.78° C | 33% | 1032.8 hPa | - | - | 150 W/m² | - |
| 1777529483 | 7.22° C | 36% | 1032.8 hPa | - | - | 140 W/m² | - |
| 1777528883 | 5° C | 41% | 1032.8 hPa | - | - | 96 W/m² | - |
| 1777528283 | 4.44° C | 41% | 1032.7 hPa | - | - | 22 W/m² | - |
| 1777527683 | 4.44° C | 44% | 1032.6 hPa | - | - | 21 W/m² | - |
| 1777527083 | 3.89° C | 45% | 1032.6 hPa | - | - | 19 W/m² | - |
| 1777526483 | 3.33° C | 47% | 1032.7 hPa | - | - | 18 W/m² | - |
| 1777525883 | 2.78° C | 49% | 1032.7 hPa | - | - | 16 W/m² | - |
| 1777525283 | 2.78° C | 48% | 1032.8 hPa | - | - | 15 W/m² | - |
| 1777524683 | 2.78° C | 49% | 1032.8 hPa | - | - | 13 W/m² | - |
| 1777524083 | 2.22° C | 51% | 1032.6 hPa | - | - | 12 W/m² | - |
| 1777523483 | 2.22° C | 51% | 1032.6 hPa | - | - | 10 W/m² | - |
| 1777522883 | 2.22° C | 52% | 1032.5 hPa | - | - | 8 W/m² | - |
| 1777522287 | 2.22° C | 53% | 1032.2 hPa | - | - | 6 W/m² | - |
| 1777521683 | 1.67° C | 54% | 1032 hPa | - | - | 4 W/m² | - |
| 1777521083 | 1.67° C | 55% | 1032.1 hPa | - | - | 2 W/m² | - |
| 1777520483 | 1.67° C | 54% | 1032 hPa | - | - | 1 W/m² | - |
| 1777519883 | 2.22° C | 53% | 1031.9 hPa | - | - | 0 W/m² | - |
| 1777519283 | 2.22° C | 53% | 1031.9 hPa | - | - | 0 W/m² | - |
| 1777518686 | 2.22° C | 52% | 1031.7 hPa | - | - | 0 W/m² | - |
| 1777518081 | 2.22° C | 53% | 1031.7 hPa | - | - | 0 W/m² | - |
* Rain since midnight (hover to see other rain measurements)
** Current wind speed in m/s (hover to see current wind gust speed)